Time;durP1;ratioP1;P1;durP2;ratioP2;P2;SDS_P1;SDS_P2;PMS_P1;PMS_P2;Temp;Humidity;BMP_temperature;BMP_pressure;BME280_temperature;BME280_humidity;BME280_pressure;Samples;Min_cycle;Max_cycle;Signal;HPM_P1;HPM_P2
2022/02/16 00:00:01;;;;;;;1.33;0.60;;;9.70;72.00;;;;;;20831595;28;20506;-71
2022/02/16 00:10:13;;;;;;;1.42;0.73;;;9.60;71.90;;;;;;20816580;28;20045;-73
2022/02/16 00:20:13;;;;;;;1.13;0.73;;;9.60;71.90;;;;;;20814117;28;20475;-71
2022/02/16 00:30:14;;;;;;;0.93;0.60;;;9.60;72.00;;;;;;20813427;28;20188;-70
2022/02/16 00:40:14;;;;;;;0.60;0.47;;;9.60;71.90;;;;;;20812344;28;20041;-71
2022/02/16 00:50:15;;;;;;;1.40;0.70;;;9.60;71.90;;;;;;20829160;28;20033;-71
2022/02/16 01:00:17;;;;;;;0.90;0.50;;;9.60;71.90;;;;;;20810442;28;20112;-70
2022/02/16 01:10:23;;;;;;;0.93;0.60;;;9.60;72.00;;;;;;20811598;28;20049;-71
2022/02/16 01:20:28;;;;;;;1.58;0.63;;;9.60;72.00;;;;;;20810305;28;20080;-72
2022/02/16 01:30:41;;;;;;;1.17;0.60;;;9.70;72.10;;;;;;20810807;28;20025;-71
2022/02/16 01:40:48;;;;;;;1.20;0.68;;;9.60;72.00;;;;;;20825133;28;20041;-71
2022/02/16 01:50:50;;;;;;;0.70;0.38;;;9.60;72.10;;;;;;20825395;28;20037;-71
2022/02/16 02:01:04;;;;;;;0.75;0.50;;;9.70;72.10;;;;;;20809747;28;20038;-71
2022/02/16 02:11:04;;;;;;;1.00;0.60;;;9.60;72.10;;;;;;20820591;28;20424;-70
2022/02/16 02:21:08;;;;;;;3.70;0.50;;;9.60;72.10;;;;;;20823869;28;20052;-73
2022/02/16 02:31:09;;;;;;;0.47;0.38;;;9.60;72.10;;;;;;20822699;28;20029;-70
2022/02/16 02:41:09;;;;;;;0.30;0.30;;;9.60;72.10;;;;;;20838790;28;20449;-70
2022/02/16 02:51:12;;;;;;;0.50;0.40;;;9.60;72.20;;;;;;20806560;28;20288;-71
2022/02/16 03:01:15;;;;;;;2.28;0.40;;;9.60;72.80;;;;;;20806006;28;20489;-71
2022/02/16 03:11:22;;;;;;;1.20;0.80;;;9.60;72.20;;;;;;20820329;28;20029;-70
2022/02/16 03:21:26;;;;;;;0.73;0.55;;;9.60;72.20;;;;;;20803102;28;20033;-71
2022/02/16 03:31:27;;;;;;;0.88;0.50;;;9.60;72.20;;;;;;20834516;28;20472;-71
2022/02/16 03:41:36;;;;;;;2.15;0.55;;;9.60;72.20;;;;;;20819797;28;20045;-72
2022/02/16 03:51:37;;;;;;;1.05;0.45;;;9.60;72.20;;;;;;20816337;28;20446;-71
2022/02/16 04:01:38;;;;;;;1.08;0.40;;;9.60;72.20;;;;;;20815835;28;20025;-71
2022/02/16 04:11:38;;;;;;;1.50;0.35;;;9.60;72.20;;;;;;20847791;28;20048;-71
2022/02/16 04:21:39;;;;;;;1.00;0.40;;;9.60;72.20;;;;;;20830906;28;20033;-71
2022/02/16 04:31:40;;;;;;;1.02;0.30;;;9.60;72.30;;;;;;20797785;28;20072;-71
2022/02/16 04:41:41;;;;;;;0.43;0.20;;;9.60;72.30;;;;;;20830123;28;20037;-71
2022/02/16 04:51:46;;;;;;;0.80;0.40;;;9.60;72.30;;;;;;20812458;28;20037;-72
2022/02/16 05:01:47;;;;;;;1.52;0.45;;;9.60;72.40;;;;;;20827379;28;20033;-71
2022/02/16 05:11:48;;;;;;;1.00;0.40;;;9.60;72.40;;;;;;20826827;28;20037;-71
2022/02/16 05:21:49;;;;;;;0.60;0.30;;;9.60;72.50;;;;;;20842830;28;20117;-71
2022/02/16 05:31:55;;;;;;;0.73;0.40;;;9.60;72.50;;;;;;20825634;28;20120;-71
2022/02/16 05:41:57;;;;;;;0.90;0.40;;;9.60;72.50;;;;;;20808823;28;20033;-72
2022/02/16 05:51:58;;;;;;;0.22;0.22;;;9.60;72.60;;;;;;20792134;28;20034;-70
2022/02/16 06:02:03;;;;;;;0.50;0.30;;;9.60;72.60;;;;;;20861841;28;20032;-71
2022/02/16 06:12:04;;;;;;;0.70;0.50;;;9.60;72.60;;;;;;20897088;28;20029;-76
2022/02/16 06:22:05;;;;;;;0.50;0.50;;;9.60;72.60;;;;;;20889371;28;20043;-71
2022/02/16 06:32:07;;;;;;;0.63;0.30;;;9.50;72.60;;;;;;20923668;28;20445;-73
2022/02/16 06:42:08;;;;;;;0.63;0.28;;;9.60;72.70;;;;;;20895545;28;20068;-71
2022/02/16 06:52:08;;;;;;;2.08;0.30;;;9.60;72.80;;;;;;20810880;28;20423;-71
2022/02/16 07:02:10;;;;;;;0.63;0.20;;;9.60;72.80;;;;;;20902848;28;20034;-71
2022/02/16 07:12:11;;;;;;;0.20;0.20;;;9.60;72.80;;;;;;20835716;28;20136;-76
2022/02/16 07:22:11;;;;;;;0.43;0.25;;;9.60;72.90;;;;;;20935377;28;20032;-77
2022/02/16 07:32:12;;;;;;;2.50;0.50;;;9.60;72.90;;;;;;21299511;22;20045;-76
2022/02/16 07:42:13;;;;;;;3.15;0.40;;;9.60;72.90;;;;;;20913978;28;20072;-77
2022/02/16 07:52:20;;;;;;;1.70;0.47;;;9.60;72.90;;;;;;20946828;28;20120;-77
2022/02/16 08:02:30;;;;;;;2.72;0.40;;;9.60;73.00;;;;;;20943532;28;20102;-76
2022/02/16 08:12:32;;;;;;;0.30;0.30;;;9.60;72.90;;;;;;20893817;28;20033;-76
2022/02/16 08:22:33;;;;;;;1.00;0.40;;;9.60;73.00;;;;;;20895832;28;20029;-76
2022/02/16 08:32:34;;;;;;;0.30;0.10;;;9.60;73.00;;;;;;20917676;28;20041;-76
2022/02/16 08:42:44;;;;;;;0.28;0.20;;;9.60;73.00;;;;;;20960877;28;20036;-76
2022/02/16 08:52:45;;;;;;;0.25;0.25;;;9.60;73.00;;;;;;20883762;28;20040;-77
2022/02/16 09:02:45;;;;;;;0.40;0.30;;;9.60;73.00;;;;;;20927419;28;20120;-77
2022/02/16 09:12:46;;;;;;;0.77;0.35;;;9.60;73.10;;;;;;20902868;28;20044;-76
2022/02/16 09:22:46;;;;;;;0.63;0.22;;;9.60;73.10;;;;;;20902599;28;20037;-77
2022/02/16 09:32:47;;;;;;;0.10;0.10;;;9.60;73.20;;;;;;20916065;28;20125;-76
2022/02/16 09:42:48;;;;;;;0.40;0.10;;;9.60;73.20;;;;;;20913600;28;20040;-77
2022/02/16 09:52:49;;;;;;;0.30;0.30;;;9.60;73.20;;;;;;20942813;28;20035;-79
2022/02/16 10:02:49;;;;;;;0.10;0.10;;;9.60;73.30;;;;;;20938384;28;20044;-80
2022/02/16 10:12:51;;;;;;;1.33;0.43;;;9.60;73.30;;;;;;20938754;28;20064;-77
2022/02/16 11:11:18;;;;;;;0.40;0.20;;;9.30;70.90;;;;;;21295205;27;20728;-73
2022/02/16 11:21:19;;;;;;;0.98;0.40;;;9.50;76.50;;;;;;21280649;27;20122;-74
2022/02/16 11:31:33;;;;;;;0.45;0.30;;;9.60;76.20;;;;;;21246867;27;20127;-77
2022/02/16 11:41:33;;;;;;;1.90;0.30;;;9.70;75.90;;;;;;21196407;28;20127;-79
2022/02/16 11:51:35;;;;;;;0.30;0.20;;;9.70;75.80;;;;;;21313437;27;20059;-79
2022/02/16 12:01:36;;;;;;;1.20;0.32;;;9.70;75.50;;;;;;21280918;27;20484;-77
2022/02/16 12:11:38;;;;;;;0.15;0.15;;;9.70;75.40;;;;;;21129456;27;20048;-78
2022/02/16 12:21:43;;;;;;;0.38;0.30;;;9.70;75.30;;;;;;21137727;28;20024;-79
2022/02/16 12:31:49;;;;;;;0.47;0.22;;;9.80;75.30;;;;;;21203082;27;20035;-77
2022/02/16 12:41:50;;;;;;;1.23;0.30;;;9.80;75.30;;;;;;21221731;27;20075;-77
2022/02/16 12:51:52;;;;;;;0.88;0.20;;;9.70;75.20;;;;;;21201953;27;20076;-77
2022/02/16 13:01:54;;;;;;;0.85;0.20;;;9.80;75.30;;;;;;21201000;27;20035;-78
2022/02/16 13:11:58;;;;;;;0.50;0.30;;;9.80;75.40;;;;;;21152839;27;20390;-77
2022/02/16 13:22:03;;;;;;;0.17;0.17;;;9.80;75.40;;;;;;21147545;28;20036;-77
2022/02/16 13:32:05;;;;;;;0.45;0.20;;;9.80;75.50;;;;;;21129956;27;20027;-78
2022/02/16 13:42:05;;;;;;;1.30;0.30;;;9.80;75.50;;;;;;21157505;27;20038;-77
2022/02/16 13:52:11;;;;;;;0.17;0.17;;;9.80;75.60;;;;;;21143430;28;20047;-78
2022/02/16 14:02:15;;;;;;;0.05;0.05;;;9.80;75.60;;;;;;21109806;27;20136;-79
2022/02/16 14:12:16;;;;;;;0.20;0.20;;;9.80;75.50;;;;;;20778717;28;20453;-79
2022/02/16 14:22:16;;;;;;;0.10;0.10;;;9.90;75.70;;;;;;21183589;27;20152;-79
2022/02/16 14:32:17;;;;;;;0.10;0.10;;;9.90;75.60;;;;;;20947059;27;20040;-79
2022/02/16 14:42:18;;;;;;;0.40;0.20;;;9.90;75.60;;;;;;20772034;28;20037;-80
2022/02/16 14:52:18;;;;;;;0.13;0.13;;;9.90;75.60;;;;;;20846317;28;20120;-79
2022/02/16 15:02:20;;;;;;;0.25;0.20;;;9.90;75.60;;;;;;20893176;27;20075;-76
2022/02/16 15:12:21;;;;;;;0.70;0.30;;;9.90;75.70;;;;;;21171376;28;20027;-79
2022/02/16 15:22:22;;;;;;;0.98;0.32;;;9.90;75.90;;;;;;21200104;27;20475;-80
2022/02/16 15:32:22;;;;;;;4.13;0.40;;;10.00;76.20;;;;;;21189361;28;20106;-78
2022/02/16 15:42:23;;;;;;;1.15;0.30;;;10.00;76.50;;;;;;21213812;27;20035;-78
2022/02/16 15:52:23;;;;;;;0.70;0.43;;;10.10;76.60;;;;;;21188256;27;20034;-79
2022/02/16 16:02:26;;;;;;;0.98;0.30;;;10.00;76.70;;;;;;21203926;27;20062;-76
2022/02/16 16:12:27;;;;;;;1.17;0.35;;;10.00;76.80;;;;;;21223015;27;20039;-77
2022/02/16 16:22:30;;;;;;;1.00;0.70;;;10.00;77.00;;;;;;21217720;27;20035;-81
2022/02/16 16:32:30;;;;;;;1.48;0.65;;;10.10;77.20;;;;;;21203776;27;20428;-80
2022/02/16 16:42:31;;;;;;;1.00;0.82;;;10.10;77.40;;;;;;21203485;27;20095;-84
2022/02/16 16:52:31;;;;;;;8.50;1.03;;;10.10;77.50;;;;;;21204163;27;20026;-82
2022/02/16 17:02:32;;;;;;;4.15;1.02;;;10.10;77.70;;;;;;21237746;27;20302;-80
2022/02/16 17:12:32;;;;;;;7.50;1.40;;;10.20;78.00;;;;;;21206370;27;20490;-77
2022/02/16 17:22:34;;;;;;;3.60;1.08;;;10.20;78.30;;;;;;21234808;27;20038;-80
2022/02/16 17:32:34;;;;;;;8.60;1.13;;;10.20;78.40;;;;;;21198921;27;20066;-81
2022/02/16 17:42:35;;;;;;;1.80;1.33;;;10.20;78.50;;;;;;21234282;27;20080;-76
2022/02/16 17:52:36;;;;;;;6.25;1.10;;;10.20;78.70;;;;;;21234989;27;20356;-81
2022/02/16 18:02:37;;;;;;;2.63;0.50;;;10.20;79.00;;;;;;21198511;27;20043;-81
2022/02/16 18:12:37;;;;;;;1.73;0.90;;;10.20;79.00;;;;;;21199142;27;20054;-86
2022/02/16 18:22:39;;;;;;;9.18;1.08;;;10.20;78.90;;;;;;21198133;27;20023;-77
2022/02/16 18:32:39;;;;;;;5.60;2.15;;;10.30;79.00;;;;;;21211622;27;20065;-77
2022/02/16 18:42:40;;;;;;;5.15;1.38;;;10.30;79.20;;;;;;21190098;27;20078;-78
2022/02/16 18:52:40;;;;;;;2.83;1.20;;;10.30;79.10;;;;;;21272085;27;20033;-79
2022/02/16 19:02:41;;;;;;;7.75;1.42;;;10.30;79.00;;;;;;21135112;28;20039;-79
2022/02/16 19:12:42;;;;;;;9.00;1.85;;;10.30;78.90;;;;;;21197381;27;20064;-77
2022/02/16 19:22:43;;;;;;;7.13;1.52;;;10.30;78.80;;;;;;21191770;27;20067;-78
2022/02/16 19:32:47;;;;;;;4.43;1.70;;;10.30;78.80;;;;;;21207782;27;20048;-77
2022/02/16 19:42:48;;;;;;;2.67;1.50;;;10.30;78.70;;;;;;21205672;27;20096;-74
2022/02/16 19:52:49;;;;;;;1.70;0.90;;;10.30;78.70;;;;;;21220593;27;20028;-74
2022/02/16 20:02:51;;;;;;;2.50;1.38;;;10.30;78.50;;;;;;21198451;27;20393;-75
2022/02/16 20:12:51;;;;;;;4.75;1.20;;;10.30;78.40;;;;;;21202597;27;20039;-76
2022/02/16 20:22:52;;;;;;;5.55;1.23;;;10.30;78.40;;;;;;21232787;27;20435;-76
2022/02/16 20:32:53;;;;;;;4.72;1.35;;;10.30;78.20;;;;;;21234115;27;20066;-76
2022/02/16 20:42:53;;;;;;;3.20;2.00;;;10.30;78.10;;;;;;21199976;27;20126;-76
2022/02/16 20:52:54;;;;;;;2.05;0.98;;;10.40;78.20;;;;;;21199633;27;20387;-75
2022/02/16 21:02:54;;;;;;;2.03;1.00;;;10.30;78.10;;;;;;21198123;27;20051;-75
2022/02/16 21:12:55;;;;;;;2.60;0.98;;;10.30;78.00;;;;;;21197215;27;20092;-75
2022/02/16 21:22:56;;;;;;;2.15;1.15;;;10.30;78.00;;;;;;21197353;27;20134;-76
2022/02/16 21:33:00;;;;;;;2.08;1.13;;;10.30;77.90;;;;;;21207062;27;20023;-76
2022/02/16 21:43:02;;;;;;;2.17;0.90;;;10.30;77.90;;;;;;21223403;27;20562;-77
2022/02/16 21:53:03;;;;;;;2.80;0.85;;;10.30;77.90;;;;;;21195300;27;20023;-78
2022/02/16 22:03:04;;;;;;;1.55;0.65;;;10.30;77.80;;;;;;21194207;27;20050;-76
2022/02/16 22:13:05;;;;;;;1.85;0.60;;;10.40;77.90;;;;;;21227505;27;20035;-77
2022/02/16 22:23:06;;;;;;;0.80;0.70;;;10.40;77.90;;;;;;21210244;27;20547;-77
2022/02/16 22:33:07;;;;;;;0.60;0.40;;;10.40;77.80;;;;;;21192357;27;20039;-76
2022/02/16 22:43:08;;;;;;;1.38;0.73;;;10.40;77.90;;;;;;21174641;27;20041;-77
2022/02/16 22:53:08;;;;;;;0.85;0.60;;;10.40;77.90;;;;;;21174103;27;20031;-77
2022/02/16 23:03:14;;;;;;;0.80;0.60;;;10.40;78.60;;;;;;21224769;27;20103;-76
2022/02/16 23:13:17;;;;;;;0.55;0.40;;;10.40;77.90;;;;;;21192371;28;20091;-77
2022/02/16 23:23:25;;;;;;;0.55;0.45;;;10.50;78.10;;;;;;21208141;28;20108;-75
2022/02/16 23:33:25;;;;;;;0.63;0.30;;;10.50;78.10;;;;;;21172968;28;20122;-74
2022/02/16 23:43:26;;;;;;;0.52;0.30;;;10.50;78.30;;;;;;21190360;28;20118;-74
2022/02/16 23:53:27;;;;;;;0.30;0.30;;;10.50;78.60;;;;;;21206684;28;20097;-73
